Terminal Aerodrome Forecast
Issued by NWS

Home | Current Version | Previous Version | Text Only | Print | Product List | Glossary On
Versions: 1 2 3 4 5 6 7 8 9 10 11 12 13 14 15 16 17 18 19 20
529
FTUS43 KAPX 132305 AAA
TAFTVC
TAF AMD
KTVC 132305Z 1323/1418 06011KT 1SM -SN OVC015
     FM140000 05011KT 5SM -SHSN OVC025
     FM140100 04010KT P6SM OVC025
     FM140400 03009KT P6SM VCSH BKN025
     FM140800 02008KT P6SM -SHSN BKN020
     FM141500 29004KT P6SM -SHSN BKN025=

USA.gov is the U.S. government's official web portal to all federal, state and local government web resources and services.